createdAt,value
2019-03-21T00:02:30.376Z,31.45
2019-03-21T00:05:36.103Z,31.47
2019-03-21T00:08:40.183Z,31.48
2019-03-21T00:12:04.355Z,31.47
2019-03-21T00:15:35.128Z,31.47
2019-03-21T00:18:39.248Z,31.49
2019-03-21T00:21:43.340Z,31.48
2019-03-21T00:24:47.507Z,31.49
2019-03-21T00:27:52.657Z,31.49
2019-03-21T00:30:57.709Z,31.49
2019-03-21T00:34:01.863Z,31.49
2019-03-21T00:37:05.978Z,31.52
2019-03-21T00:40:13.128Z,31.50
2019-03-21T00:43:17.288Z,31.52
2019-03-21T00:46:21.440Z,31.50
2019-03-21T00:49:27.530Z,31.50
2019-03-21T00:52:31.642Z,31.52
2019-03-21T00:55:37.532Z,31.49
2019-03-21T00:58:42.541Z,31.52
2019-03-21T01:01:46.652Z,31.51
2019-03-21T01:04:50.826Z,31.51
2019-03-21T01:07:55.901Z,31.53
2019-03-21T01:11:00.012Z,31.51
2019-03-21T01:14:04.457Z,31.52
2019-03-21T01:17:08.475Z,31.52
2019-03-21T01:20:14.035Z,31.52
2019-03-21T01:23:19.179Z,31.53
2019-03-21T01:26:24.417Z,31.54
2019-03-21T01:29:28.472Z,31.52
2019-03-21T01:32:32.605Z,31.52
2019-03-21T01:35:37.087Z,31.55
2019-03-21T01:38:42.179Z,31.54
2019-03-21T01:41:46.160Z,31.54
2019-03-21T01:44:51.230Z,31.54
2019-03-21T01:47:55.589Z,31.54
2019-03-21T01:50:59.735Z,31.53
2019-03-21T01:54:04.047Z,31.56
2019-03-21T01:57:08.099Z,31.53
2019-03-21T02:00:20.242Z,31.51
2019-03-21T02:03:24.315Z,31.53
2019-03-21T02:06:28.435Z,31.53
2019-03-21T02:09:32.538Z,31.51
2019-03-21T02:12:36.645Z,31.51
2019-03-21T02:15:40.952Z,31.55
2019-03-21T02:18:45.105Z,31.54
2019-03-21T02:21:49.261Z,31.53
2019-03-21T02:24:54.354Z,31.55
2019-03-21T02:27:58.574Z,31.56
2019-03-21T02:31:02.835Z,31.57
2019-03-21T02:34:07.372Z,31.54
2019-03-21T02:37:11.553Z,31.57
2019-03-21T02:40:17.212Z,31.56
2019-03-21T02:43:21.380Z,31.57
2019-03-21T02:46:25.487Z,31.56
2019-03-21T02:49:30.621Z,31.57
2019-03-21T02:52:35.712Z,31.58
2019-03-21T02:55:39.806Z,31.58
2019-03-21T02:58:43.955Z,31.56
2019-03-21T03:01:48.106Z,31.56
2019-03-21T03:04:54.232Z,31.57
2019-03-21T03:07:58.417Z,31.55
2019-03-21T03:11:03.081Z,31.55
2019-03-21T03:14:07.202Z,31.57
2019-03-21T03:17:11.417Z,31.55
2019-03-21T03:20:16.036Z,31.57
2019-03-21T03:23:21.145Z,31.56
2019-03-21T03:26:25.249Z,31.57
2019-03-21T03:29:29.556Z,31.57
2019-03-21T03:32:33.682Z,31.58
2019-03-21T03:35:37.821Z,31.59
2019-03-21T03:38:41.925Z,31.58
2019-03-21T03:41:46.110Z,31.59
2019-03-21T03:44:50.419Z,31.60
2019-03-21T03:47:54.556Z,31.60
2019-03-21T03:50:58.681Z,31.60
2019-03-21T03:54:02.713Z,31.59
2019-03-21T03:57:06.884Z,31.60
2019-03-21T04:00:13.793Z,31.61
2019-03-21T04:03:17.956Z,31.60
2019-03-21T04:06:22.119Z,31.61
2019-03-21T04:09:27.176Z,31.61
2019-03-21T04:12:31.399Z,31.60
2019-03-21T04:15:35.539Z,31.60
2019-03-21T04:18:39.903Z,31.62
2019-03-21T04:21:44.206Z,31.61
2019-03-21T04:24:48.377Z,31.61
2019-03-21T04:27:52.543Z,31.62
2019-03-21T04:30:57.739Z,31.61
2019-03-21T04:34:04.138Z,31.63
2019-03-21T04:37:08.359Z,31.63
2019-03-21T04:40:13.067Z,31.61
2019-03-21T04:43:17.043Z,31.62
2019-03-21T04:46:21.125Z,31.62
2019-03-21T04:49:25.298Z,31.62
2019-03-21T04:52:30.390Z,31.63
2019-03-21T04:55:36.480Z,31.65
2019-03-21T04:58:40.594Z,31.64
2019-03-21T05:01:44.742Z,31.64
2019-03-21T05:04:48.920Z,31.64
2019-03-21T05:07:53.097Z,31.62
2019-03-21T05:10:57.342Z,31.65
2019-03-21T05:14:02.470Z,31.63
2019-03-21T05:17:06.684Z,31.63
2019-03-21T05:20:14.490Z,31.62
2019-03-21T05:23:18.623Z,31.65
2019-03-21T05:26:23.854Z,31.63
2019-03-21T05:29:27.909Z,31.65
2019-03-21T05:32:31.990Z,31.63
2019-03-21T05:35:36.195Z,31.64
2019-03-21T05:38:40.235Z,31.64
2019-03-21T05:41:44.335Z,31.63
2019-03-21T05:44:48.526Z,31.63
2019-03-21T05:47:52.586Z,31.67
2019-03-21T05:50:57.722Z,31.63
2019-03-21T05:54:01.843Z,31.63
2019-03-21T05:57:07.112Z,31.64
2019-03-21T06:00:15.435Z,31.62
2019-03-21T06:03:22.505Z,31.63
2019-03-21T06:06:40.031Z,31.64
2019-03-21T06:09:44.188Z,31.65
2019-03-21T06:12:49.268Z,31.64
2019-03-21T06:15:53.397Z,31.63
2019-03-21T06:19:04.376Z,31.64
2019-03-21T06:22:42.603Z,31.63
2019-03-21T06:26:21.129Z,31.63
2019-03-21T06:29:25.198Z,31.62
2019-03-21T06:32:29.300Z,31.64
2019-03-21T06:35:34.490Z,31.63
2019-03-21T06:38:38.554Z,31.64
2019-03-21T06:41:45.798Z,31.63
2019-03-21T06:44:49.850Z,31.63
2019-03-21T06:47:54.036Z,31.63
2019-03-21T06:50:58.131Z,31.64
2019-03-21T06:54:02.238Z,31.62
2019-03-21T06:57:06.419Z,31.63
2019-03-21T07:00:11.131Z,31.64
2019-03-21T07:03:16.587Z,31.63
2019-03-21T07:06:20.726Z,31.62
2019-03-21T07:09:24.863Z,31.63
2019-03-21T07:12:28.856Z,31.61
2019-03-21T07:15:38.695Z,31.63
2019-03-21T07:18:43.775Z,31.68
2019-03-21T07:21:47.798Z,31.67
2019-03-21T07:24:51.821Z,32.01
2019-03-21T07:27:55.950Z,32.00
2019-03-21T07:31:00.010Z,32.01
2019-03-21T07:34:04.025Z,32.00
2019-03-21T07:37:08.016Z,32.03
2019-03-21T07:40:12.589Z,32.04
2019-03-21T07:43:16.554Z,32.03
2019-03-21T07:46:20.571Z,32.03
2019-03-21T07:49:24.558Z,32.01
2019-03-21T07:52:28.624Z,32.03
2019-03-21T07:55:32.623Z,32.04
2019-03-21T07:58:36.579Z,32.06
2019-03-21T08:01:42.584Z,32.02
2019-03-21T08:04:46.620Z,32.01
2019-03-21T08:07:50.707Z,31.98
2019-03-21T08:10:54.825Z,31.99
2019-03-21T08:13:58.830Z,31.99
2019-03-21T08:17:03.022Z,31.98
2019-03-21T08:20:08.720Z,32.03
2019-03-21T08:23:12.833Z,32.02
2019-03-21T08:26:17.011Z,31.97
2019-03-21T08:29:23.105Z,32.01
2019-03-21T08:32:27.315Z,32.00
2019-03-21T08:35:33.389Z,32.00
2019-03-21T08:38:37.509Z,32.02
2019-03-21T08:41:41.624Z,32.01
2019-03-21T08:44:45.728Z,31.97
2019-03-21T08:47:49.844Z,31.99
2019-03-21T08:50:53.959Z,31.97
2019-03-21T08:53:58.140Z,31.96
2019-03-21T08:57:02.320Z,31.96
2019-03-21T09:00:06.336Z,31.96
2019-03-21T09:03:10.406Z,31.95
2019-03-21T09:06:14.627Z,31.94
2019-03-21T09:09:18.650Z,31.95
2019-03-21T09:15:25.730Z,31.94
2019-03-21T09:18:29.776Z,31.93
2019-03-21T09:21:33.957Z,31.95
2019-03-21T09:24:39.025Z,31.90
2019-03-21T09:27:43.138Z,31.85
2019-03-21T09:30:50.468Z,32.30
2019-03-21T09:33:54.256Z,31.93
2019-03-21T09:37:00.669Z,31.83
2019-03-21T09:40:06.625Z,31.72
2019-03-21T09:43:10.688Z,31.71
2019-03-21T09:46:14.769Z,31.80
2019-03-21T09:49:20.007Z,31.82
2019-03-21T09:52:25.139Z,31.79
2019-03-21T09:55:29.286Z,31.79
2019-03-21T09:58:33.290Z,31.74
2019-03-21T10:01:37.486Z,31.78
2019-03-21T10:04:41.609Z,31.77
2019-03-21T10:07:45.677Z,31.77
2019-03-21T10:10:49.730Z,31.77
2019-03-21T10:13:53.706Z,31.77
2019-03-21T10:16:57.818Z,31.76
2019-03-21T10:20:01.993Z,31.79
2019-03-21T10:23:05.966Z,31.80
2019-03-21T10:26:10.139Z,31.79
2019-03-21T10:29:15.365Z,31.77
2019-03-21T10:32:19.385Z,31.79
2019-03-21T10:35:23.479Z,31.78
2019-03-21T10:38:27.517Z,31.76
2019-03-21T10:41:31.490Z,31.77
2019-03-21T10:44:35.722Z,31.73
2019-03-21T10:47:39.946Z,31.77
2019-03-21T10:50:44.086Z,31.80
2019-03-21T10:53:48.236Z,31.80
2019-03-21T10:56:52.349Z,31.80
2019-03-21T10:59:56.516Z,31.79
2019-03-21T11:03:00.630Z,31.79
2019-03-21T11:06:04.678Z,31.83
2019-03-21T11:09:09.444Z,31.77
2019-03-21T11:12:13.758Z,31.78
2019-03-21T11:15:17.895Z,31.79
2019-03-21T11:18:21.939Z,31.75
2019-03-21T11:21:27.085Z,31.77
2019-03-21T11:24:32.254Z,31.74
2019-03-21T11:27:38.658Z,31.72
2019-03-21T11:30:43.987Z,31.76
2019-03-21T11:33:48.069Z,31.69
2019-03-21T11:36:52.251Z,31.62
2019-03-21T11:39:56.327Z,31.57
2019-03-21T11:43:00.973Z,31.56
2019-03-21T11:46:05.170Z,31.56
2019-03-21T11:49:10.258Z,31.59
2019-03-21T11:52:18.361Z,31.60
2019-03-21T11:55:20.220Z,31.64
2019-03-21T11:58:24.424Z,31.62
2019-03-21T12:01:28.571Z,31.59
2019-03-21T12:04:32.692Z,31.59
2019-03-21T12:07:36.797Z,31.52
2019-03-21T12:10:43.987Z,31.64
2019-03-21T12:13:50.327Z,31.63
2019-03-21T12:16:54.476Z,31.65
2019-03-21T12:19:58.586Z,31.63
2019-03-21T12:23:02.816Z,31.61
2019-03-21T12:26:06.891Z,31.67
2019-03-21T12:29:10.922Z,31.62
2019-03-21T12:32:15.049Z,31.60
2019-03-21T12:35:19.269Z,31.55
2019-03-21T12:38:23.264Z,31.57
2019-03-21T12:41:27.404Z,31.55
2019-03-21T12:44:38.932Z,31.57
2019-03-21T12:47:42.999Z,31.56
2019-03-21T12:50:48.243Z,31.54
2019-03-21T12:53:52.255Z,31.60
2019-03-21T12:56:56.399Z,31.53
2019-03-21T13:00:00.502Z,31.55
2019-03-21T13:03:04.647Z,31.50
2019-03-21T13:06:08.795Z,31.49
2019-03-21T13:09:12.825Z,31.49
2019-03-21T13:12:17.038Z,31.46
2019-03-21T13:15:29.817Z,31.43
2019-03-21T13:18:27.641Z,31.50
2019-03-21T13:21:31.929Z,31.50
2019-03-21T13:24:36.162Z,31.50
2019-03-21T13:27:40.672Z,31.55
2019-03-21T13:30:44.996Z,31.52
2019-03-21T13:33:49.020Z,31.54
2019-03-21T13:36:53.639Z,31.55
2019-03-21T13:39:57.854Z,31.54
2019-03-21T13:43:02.407Z,31.51
2019-03-21T13:46:06.779Z,31.49
2019-03-21T13:49:10.927Z,31.46
2019-03-21T13:52:15.280Z,31.41
2019-03-21T13:55:20.738Z,31.36
2019-03-21T13:58:25.010Z,31.39
2019-03-21T14:01:29.467Z,31.39
2019-03-21T14:04:33.564Z,31.38
2019-03-21T14:07:37.783Z,31.40
2019-03-21T14:10:42.940Z,31.42
2019-03-21T14:13:48.089Z,31.42
2019-03-21T14:16:52.281Z,31.40
2019-03-21T14:19:57.400Z,31.33
2019-03-21T14:23:02.544Z,31.33
2019-03-21T14:26:06.567Z,31.31
2019-03-21T14:29:12.775Z,31.23
2019-03-21T14:32:17.478Z,31.21
2019-03-21T14:35:21.588Z,31.17
2019-03-21T14:38:26.610Z,31.09
2019-03-21T14:41:31.937Z,31.42
2019-03-21T14:44:36.005Z,31.43
2019-03-21T14:47:40.277Z,31.39
2019-03-21T14:50:44.680Z,31.38
2019-03-21T14:53:48.728Z,31.39
2019-03-21T14:56:52.875Z,31.38
2019-03-21T14:59:56.966Z,31.38
2019-03-21T15:03:01.083Z,31.38
2019-03-21T15:06:05.228Z,31.36
2019-03-21T15:09:09.315Z,31.29
2019-03-21T15:12:15.504Z,31.27
2019-03-21T15:15:19.653Z,31.25
2019-03-21T15:18:23.855Z,31.21
2019-03-21T15:21:28.197Z,31.20
2019-03-21T15:24:32.421Z,31.19
2019-03-21T15:27:36.686Z,31.15
2019-03-21T15:30:40.772Z,31.13
2019-03-21T15:33:44.878Z,31.09
2019-03-21T15:36:48.994Z,30.96
2019-03-21T15:39:53.139Z,30.97
2019-03-21T15:42:57.364Z,30.94
2019-03-21T15:46:01.351Z,30.93
2019-03-21T15:49:05.511Z,30.92
2019-03-21T15:52:10.646Z,30.83
2019-03-21T15:55:14.728Z,30.82
2019-03-21T15:58:19.072Z,30.80
2019-03-21T16:01:23.158Z,30.78
2019-03-21T16:04:27.331Z,30.72
2019-03-21T16:07:31.428Z,30.73
2019-03-21T16:10:36.366Z,30.73
2019-03-21T16:13:40.472Z,30.67
2019-03-21T16:16:44.704Z,30.71
2019-03-21T16:19:48.872Z,30.71
2019-03-21T16:22:53.057Z,30.70
2019-03-21T16:25:58.130Z,30.71
2019-03-21T16:29:02.279Z,30.70
2019-03-21T16:32:06.355Z,30.67
2019-03-21T16:35:11.526Z,30.65
2019-03-21T16:38:15.643Z,30.64
2019-03-21T16:41:19.750Z,30.63
2019-03-21T16:44:23.887Z,30.66
2019-03-21T16:47:27.965Z,30.66
2019-03-21T16:50:31.928Z,30.67
2019-03-21T16:53:36.033Z,30.62
2019-03-21T16:56:40.107Z,30.60
2019-03-21T16:59:44.223Z,30.61
2019-03-21T17:02:48.343Z,30.62
2019-03-21T17:05:52.466Z,30.58
2019-03-21T17:08:57.688Z,30.58
2019-03-21T17:12:02.252Z,30.57
2019-03-21T17:15:06.511Z,30.58
2019-03-21T17:18:10.616Z,30.76
2019-03-21T17:21:14.604Z,30.77
2019-03-21T17:24:28.643Z,30.81
2019-03-21T17:27:24.252Z,30.83
2019-03-21T17:30:28.249Z,30.86
2019-03-21T17:33:32.362Z,30.89
2019-03-21T17:36:36.584Z,30.93
2019-03-21T17:39:40.591Z,30.94
2019-03-21T17:42:44.610Z,31.02
2019-03-21T17:45:48.611Z,31.00
2019-03-21T17:48:53.736Z,31.02
2019-03-21T17:51:57.916Z,31.00
2019-03-21T17:55:03.036Z,31.05
2019-03-21T17:58:07.012Z,31.06
2019-03-21T18:01:11.063Z,31.11
2019-03-21T18:04:15.063Z,31.11
2019-03-21T18:07:19.100Z,31.12
2019-03-21T18:10:30.422Z,31.15
2019-03-21T18:13:34.547Z,31.15
2019-03-21T18:16:38.602Z,31.16
2019-03-21T18:19:42.592Z,31.16
2019-03-21T18:22:46.612Z,31.10
2019-03-21T18:25:50.758Z,31.11
2019-03-21T18:28:54.861Z,31.18
2019-03-21T18:31:59.026Z,31.18
2019-03-21T18:35:03.015Z,31.22
2019-03-21T18:38:07.274Z,31.22
2019-03-21T18:41:11.304Z,31.25
2019-03-21T18:44:15.418Z,31.25
2019-03-21T18:47:19.435Z,31.27
2019-03-21T18:50:23.505Z,31.28
2019-03-21T18:53:28.604Z,31.30
2019-03-21T18:56:32.596Z,31.28
2019-03-21T18:59:36.604Z,31.34
2019-03-21T19:02:40.701Z,31.33
2019-03-21T19:05:44.804Z,31.32
2019-03-21T19:08:48.857Z,31.34
2019-03-21T19:11:52.886Z,31.34
2019-03-21T19:14:56.971Z,31.34
2019-03-21T19:18:01.232Z,31.33
2019-03-21T19:21:05.306Z,31.34
2019-03-21T19:24:11.454Z,31.33
2019-03-21T19:27:14.973Z,31.36
2019-03-21T19:30:18.962Z,31.38
2019-03-21T19:33:22.949Z,31.38
2019-03-21T19:36:26.940Z,31.38
2019-03-21T19:39:30.937Z,31.38
2019-03-21T19:42:34.953Z,31.41
2019-03-21T19:45:38.938Z,31.41
2019-03-21T19:48:50.173Z,31.41
2019-03-21T19:51:48.638Z,31.44
2019-03-21T19:54:52.653Z,31.43
2019-03-21T19:57:56.902Z,31.40
2019-03-21T20:01:03.008Z,31.41
2019-03-21T20:04:06.981Z,31.41
2019-03-21T20:07:11.012Z,31.41
2019-03-21T20:10:15.327Z,31.40
2019-03-21T20:13:19.364Z,31.40
2019-03-21T20:16:23.338Z,31.40
2019-03-21T20:19:27.389Z,31.41
2019-03-21T20:22:31.415Z,31.40
2019-03-21T20:25:42.827Z,31.45
2019-03-21T20:28:41.171Z,31.43
2019-03-21T20:31:45.186Z,31.41
2019-03-21T20:34:49.198Z,31.43
2019-03-21T20:37:53.291Z,31.42
2019-03-21T20:40:57.466Z,31.41
2019-03-21T20:44:01.664Z,31.48
2019-03-21T20:47:06.905Z,31.42
2019-03-21T20:50:12.953Z,31.42
2019-03-21T20:53:16.953Z,31.43
2019-03-21T20:56:26.908Z,31.48
2019-03-21T20:59:32.072Z,31.43
2019-03-21T21:02:36.201Z,31.43
2019-03-21T21:05:40.205Z,31.44
2019-03-21T21:08:48.294Z,31.42
2019-03-21T21:11:52.503Z,31.39
2019-03-21T21:14:56.572Z,31.37
2019-03-21T21:18:00.740Z,31.36
2019-03-21T21:21:04.771Z,31.34
2019-03-21T21:24:09.893Z,31.34
2019-03-21T21:27:16.195Z,31.35
2019-03-21T21:30:20.409Z,31.35
2019-03-21T21:33:25.515Z,31.31
2019-03-21T21:36:29.722Z,31.30
2019-03-21T21:39:33.937Z,31.33
2019-03-21T21:42:39.168Z,31.32
2019-03-21T21:45:43.232Z,31.35
2019-03-21T21:48:47.319Z,31.33
2019-03-21T21:51:51.448Z,31.32
2019-03-21T21:54:55.481Z,31.33
2019-03-21T21:57:59.463Z,31.32
2019-03-21T22:01:03.495Z,31.33
2019-03-21T22:04:07.514Z,31.34
2019-03-21T22:07:11.658Z,31.36
2019-03-21T22:10:15.748Z,31.36
2019-03-21T22:13:19.837Z,31.37
2019-03-21T22:16:23.861Z,31.37
2019-03-21T22:19:28.950Z,31.37
2019-03-21T22:22:33.015Z,31.37
2019-03-21T22:25:37.230Z,31.35
2019-03-21T22:28:42.256Z,31.37
2019-03-21T22:31:46.262Z,31.38
2019-03-21T22:34:51.364Z,31.38
2019-03-21T22:37:55.488Z,31.41
2019-03-21T22:40:59.577Z,31.41
2019-03-21T22:44:03.664Z,31.42
2019-03-21T22:47:07.676Z,31.41
2019-03-21T22:50:14.731Z,31.41
2019-03-21T22:53:18.543Z,31.44
2019-03-21T22:56:24.614Z,31.43
2019-03-21T22:59:28.620Z,31.46
2019-03-21T23:02:32.986Z,31.45
2019-03-21T23:05:37.274Z,31.43
2019-03-21T23:08:42.387Z,31.44
2019-03-21T23:11:46.430Z,31.44
2019-03-21T23:14:50.431Z,31.47
2019-03-21T23:17:54.519Z,31.45
2019-03-21T23:20:59.634Z,31.46
2019-03-21T23:24:04.806Z,31.48
2019-03-21T23:27:09.115Z,31.49
2019-03-21T23:30:13.443Z,31.48
2019-03-21T23:33:20.460Z,31.46
2019-03-21T23:36:24.517Z,31.48
2019-03-21T23:39:28.576Z,31.49
2019-03-21T23:42:32.589Z,31.47
2019-03-21T23:45:36.607Z,31.52
2019-03-21T23:48:40.739Z,31.53
2019-03-21T23:51:44.733Z,31.52
2019-03-21T23:54:48.935Z,31.51
2019-03-21T23:57:52.981Z,31.50
